Time;durP1;ratioP1;P1;durP2;ratioP2;P2;SDS_P1;SDS_P2;PMS_P1;PMS_P2;Temp;Humidity;BMP_temperature;BMP_pressure;BME280_temperature;BME280_humidity;BME280_pressure;Samples;Min_cycle;Max_cycle;Signal;HPM_P1;HPM_P2
2023/02/06 00:01:13;;;;;;;;;;;;;;;;;;5032583;28;1957;-44
2023/02/06 00:03:41;;;;;;;;;;;;;;;;;;5031134;28;1877;-46
2023/02/06 00:06:09;;;;;;;;;;;;;;;;;;5032471;28;1956;-47
2023/02/06 00:08:36;;;;;;;;;;;;;;;;;;5032510;28;1619;-44
2023/02/06 00:11:04;;;;;;;;;;;;;;;;;;5032504;28;2037;-45
2023/02/06 00:13:32;;;;;;;;;;;;;;;;;;5032637;28;1616;-46
2023/02/06 00:16:00;;;;;;;;;;;;;;;;;;5032198;28;1986;-44
2023/02/06 00:18:27;;;;;;;;;;;;;;;;;;5032267;28;2011;-47
2023/02/06 00:20:54;;;;;;;;;;;;;;;;;;5014452;28;1876;-50
2023/02/06 00:23:21;;;;;;;;;;;;;;;;;;5032177;28;2028;-49
2023/02/06 00:25:48;;;;;;;;;;;;;;;;;;5032100;28;1743;-51
2023/02/06 00:28:15;;;;;;;;;;;;;;;;;;5032218;28;1469;-49
2023/02/06 00:30:44;;;;;;;;;;;;;;;;;;5014135;28;1883;-46
2023/02/06 00:33:12;;;;;;;;;;;;;;;;;;5031971;28;1863;-46
2023/02/06 00:35:39;;;;;;;;;;;;;;;;;;5031919;28;2031;-45
2023/02/06 00:38:08;;;;;;;;;;;;;;;;;;5014099;28;1983;-47
2023/02/06 00:40:37;;;;;;;;;;;;;;;;;;5032165;28;1694;-47
2023/02/06 00:43:04;;;;;;;;;;;;;;;;;;5031935;28;2002;-47
2023/02/06 00:45:32;;;;;;;;;;;;;;;;;;5046814;28;1901;-46
2023/02/06 00:48:00;;;;;;;;;;;;;;;;;;5031863;28;2357;-45
2023/02/06 00:50:29;;;;;;;;;;;;;;;;;;5014586;28;1766;-51
2023/02/06 00:52:57;;;;;;;;;;;;;;;;;;5031819;28;2132;-51
2023/02/06 00:55:24;;;;;;;;;;;;;;;;;;5030927;28;1835;-45
2023/02/06 00:57:53;;;;;;;;;;;;;;;;;;5031570;28;2256;-47
2023/02/06 01:00:21;;;;;;;;;;;;;;;;;;5031519;28;1900;-45
2023/02/06 01:02:48;;;;;;;;;;;;;;;;;;5038329;28;1915;-47
2023/02/06 01:05:18;;;;;;;;;;;;;;;;;;5051399;28;1781;-43
2023/02/06 01:07:45;;;;;;;;;;;;;;;;;;5033247;28;2323;-50
2023/02/06 01:10:12;;;;;;;;;;;;;;;;;;5033492;28;2039;-49
2023/02/06 01:12:39;;;;;;;;;;;;;;;;;;5033360;28;1720;-48
2023/02/06 01:15:08;;;;;;;;;;;;;;;;;;5051507;28;1525;-50
2023/02/06 01:17:36;;;;;;;;;;;;;;;;;;5051396;28;1975;-48
2023/02/06 01:20:04;;;;;;;;;;;;;;;;;;5051168;28;1806;-49
2023/02/06 01:22:32;;;;;;;;;;;;;;;;;;5051188;28;2053;-46
2023/02/06 01:24:59;;;;;;;;;;;;;;;;;;5051018;28;1621;-46
2023/02/06 01:27:27;;;;;;;;;;;;;;;;;;5051126;28;2004;-50
2023/02/06 01:29:54;;;;;;;;;;;;;;;;;;5051131;28;1847;-48
2023/02/06 01:32:21;;;;;;;;;;;;;;;;;;5050845;28;1989;-44
2023/02/06 01:34:48;;;;;;;;;;;;;;;;;;5051110;28;2201;-45
2023/02/06 01:37:16;;;;;;;;;;;;;;;;;;5033141;28;2143;-49
2023/02/06 01:39:43;;;;;;;;;;;;;;;;;;5050978;28;1769;-52
2023/02/06 01:42:12;;;;;;;;;;;;;;;;;;5050892;28;1854;-44
2023/02/06 01:44:39;;;;;;;;;;;;;;;;;;5050806;28;1669;-48
2023/02/06 01:47:08;;;;;;;;;;;;;;;;;;5050965;28;1869;-45
2023/02/06 01:49:38;;;;;;;;;;;;;;;;;;5049503;28;2093;-50
2023/02/06 01:52:17;;;;;;;;;;;;;;;;;;5032950;28;1929;-48
2023/02/06 01:54:47;;;;;;;;;;;;;;;;;;5050795;28;1844;-48
2023/02/06 01:57:15;;;;;;;;;;;;;;;;;;5050716;28;2233;-47
2023/02/06 01:59:45;;;;;;;;;;;;;;;;;;5032980;28;1951;-44
2023/02/06 02:02:13;;;;;;;;;;;;;;;;;;5033043;28;1701;-47
2023/02/06 02:04:40;;;;;;;;;;;;;;;;;;5051084;28;1980;-45
2023/02/06 02:07:19;;;;;;;;;;;;;;;;;;5036835;28;2716;-50
2023/02/06 02:09:49;;;;;;;;;;;;;;;;;;5054690;28;1839;-44
2023/02/06 02:12:17;;;;;;;;;;;;;;;;;;5054497;28;2128;-47
2023/02/06 02:14:45;;;;;;;;;;;;;;;;;;5036696;28;2089;-45
2023/02/06 02:17:39;;;;;;;;;;;;;;;;;;5036505;28;2065;-46
2023/02/06 02:20:16;;;;;;;;;;;;;;;;;;5052568;28;1873;-50
2023/02/06 02:22:43;;;;;;;;;;;;;;;;;;5054790;28;2257;-46
2023/02/06 02:25:40;;;;;;;;;;;;;;;;;;5054673;28;1833;-43
2023/02/06 02:28:16;;;;;;;;;;;;;;;;;;5054297;28;2007;-51
2023/02/06 02:30:53;;;;;;;;;;;;;;;;;;5054394;28;2018;-52
2023/02/06 02:33:27;;;;;;;;;;;;;;;;;;5054083;28;1697;-50
2023/02/06 02:36:00;;;;;;;;;;;;;;;;;;5054140;28;1994;-48
2023/02/06 02:38:39;;;;;;;;;;;;;;;;;;5053780;28;1934;-45
2023/02/06 02:41:06;;;;;;;;;;;;;;;;;;5053970;28;1810;-46
2023/02/06 02:43:41;;;;;;;;;;;;;;;;;;5035812;28;2162;-48
2023/02/06 02:46:15;;;;;;;;;;;;;;;;;;5035966;28;1511;-47
2023/02/06 02:48:44;;;;;;;;;;;;;;;;;;5054132;28;1702;-53
2023/02/06 02:51:11;;;;;;;;;;;;;;;;;;5036176;28;1858;-44
2023/02/06 02:53:40;;;;;;;;;;;;;;;;;;5035866;28;1482;-48
2023/02/06 02:56:15;;;;;;;;;;;;;;;;;;5053745;28;2228;-45
2023/02/06 02:58:47;;;;;;;;;;;;;;;;;;5035903;28;1979;-45
2023/02/06 03:01:18;;;;;;;;;;;;;;;;;;5053958;28;1870;-46
2023/02/06 03:03:47;;;;;;;;;;;;;;;;;;5035954;28;1998;-44
2023/02/06 03:06:33;;;;;;;;;;;;;;;;;;5035684;28;2265;-46
2023/02/06 03:09:10;;;;;;;;;;;;;;;;;;5053498;28;2021;-46
2023/02/06 03:11:40;;;;;;;;;;;;;;;;;;5035442;28;2000;-46
2023/02/06 03:14:10;;;;;;;;;;;;;;;;;;5035659;28;1963;-46
2023/02/06 03:16:40;;;;;;;;;;;;;;;;;;5052704;28;1970;-45
2023/02/06 03:19:19;;;;;;;;;;;;;;;;;;5053500;28;1969;-46
2023/02/06 03:21:46;;;;;;;;;;;;;;;;;;5053482;28;1783;-47
2023/02/06 03:24:19;;;;;;;;;;;;;;;;;;5053507;28;1871;-51
2023/02/06 03:26:47;;;;;;;;;;;;;;;;;;5053196;28;1539;-51
2023/02/06 03:29:15;;;;;;;;;;;;;;;;;;5053400;28;1310;-48
2023/02/06 03:31:51;;;;;;;;;;;;;;;;;;5052998;28;2163;-47
2023/02/06 03:34:28;;;;;;;;;;;;;;;;;;5053218;28;1745;-48
2023/02/06 03:36:55;;;;;;;;;;;;;;;;;;5035132;28;2051;-44
2023/02/06 03:39:22;;;;;;;;;;;;;;;;;;5052872;28;2006;-47
2023/02/06 03:41:50;;;;;;;;;;;;;;;;;;5052839;28;2021;-44
2023/02/06 03:44:20;;;;;;;;;;;;;;;;;;5053034;28;1965;-45
2023/02/06 03:46:48;;;;;;;;;;;;;;;;;;5053144;28;1470;-45
2023/02/06 03:49:17;;;;;;;;;;;;;;;;;;5052923;28;1981;-44
2023/02/06 03:52:04;;;;;;;;;;;;;;;;;;5052616;28;1554;-44
2023/02/06 03:54:33;;;;;;;;;;;;;;;;;;5052623;28;1537;-44
2023/02/06 03:57:02;;;;;;;;;;;;;;;;;;5052662;28;1686;-44
2023/02/06 03:59:30;;;;;;;;;;;;;;;;;;5052192;28;1971;-45
2023/02/06 04:01:58;;;;;;;;;;;;;;;;;;5052567;28;1242;-43
2023/02/06 04:04:30;;;;;;;;;;;;;;;;;;5032431;28;2041;-44
2023/02/06 04:06:59;;;;;;;;;;;;;;;;;;5040229;28;2179;-44
2023/02/06 04:09:26;;;;;;;;;;;;;;;;;;5052256;28;1514;-45
2023/02/06 04:11:54;;;;;;;;;;;;;;;;;;5052213;28;1875;-43
2023/02/06 04:14:22;;;;;;;;;;;;;;;;;;5052241;28;1637;-43
2023/02/06 04:16:49;;;;;;;;;;;;;;;;;;5052700;28;2211;-44
2023/02/06 04:19:16;;;;;;;;;;;;;;;;;;5052235;28;2140;-50
2023/02/06 04:21:43;;;;;;;;;;;;;;;;;;5052377;28;2140;-51
2023/02/06 04:24:11;;;;;;;;;;;;;;;;;;5052016;28;2189;-43
2023/02/06 04:26:39;;;;;;;;;;;;;;;;;;5051297;28;2127;-44
2023/02/06 04:29:06;;;;;;;;;;;;;;;;;;5049375;28;1984;-44
2023/02/06 04:31:33;;;;;;;;;;;;;;;;;;5051925;28;2124;-44
2023/02/06 04:34:01;;;;;;;;;;;;;;;;;;5052093;28;1297;-43
2023/02/06 04:36:28;;;;;;;;;;;;;;;;;;5051950;28;1685;-48
2023/02/06 04:38:55;;;;;;;;;;;;;;;;;;5052050;28;1917;-45
2023/02/06 04:41:22;;;;;;;;;;;;;;;;;;5052018;28;1848;-45
2023/02/06 04:43:50;;;;;;;;;;;;;;;;;;5051911;28;1823;-46
2023/02/06 04:46:17;;;;;;;;;;;;;;;;;;5051558;28;1953;-53
2023/02/06 04:48:45;;;;;;;;;;;;;;;;;;5066912;28;2366;-44
2023/02/06 04:51:12;;;;;;;;;;;;;;;;;;5051738;28;2021;-45
2023/02/06 04:53:39;;;;;;;;;;;;;;;;;;5051551;28;2003;-44
2023/02/06 04:56:08;;;;;;;;;;;;;;;;;;5051802;28;1676;-43
2023/02/06 04:58:35;;;;;;;;;;;;;;;;;;5051323;28;1979;-45
2023/02/06 05:01:03;;;;;;;;;;;;;;;;;;5051470;28;1776;-45
2023/02/06 05:03:30;;;;;;;;;;;;;;;;;;5051325;28;2018;-43
2023/02/06 05:05:59;;;;;;;;;;;;;;;;;;5051444;28;1582;-45
2023/02/06 05:08:26;;;;;;;;;;;;;;;;;;5051355;28;1778;-43
2023/02/06 05:10:54;;;;;;;;;;;;;;;;;;5051406;28;2112;-42
2023/02/06 05:13:21;;;;;;;;;;;;;;;;;;5051395;28;2240;-44
2023/02/06 05:15:48;;;;;;;;;;;;;;;;;;5051170;28;1973;-44
2023/02/06 05:18:15;;;;;;;;;;;;;;;;;;5051049;28;2064;-44
2023/02/06 05:20:43;;;;;;;;;;;;;;;;;;5051126;28;1589;-44
2023/02/06 05:23:10;;;;;;;;;;;;;;;;;;5051052;28;1836;-46
2023/02/06 05:25:37;;;;;;;;;;;;;;;;;;5050913;28;2313;-48
2023/02/06 05:28:07;;;;;;;;;;;;;;;;;;5051201;28;1565;-46
2023/02/06 05:30:35;;;;;;;;;;;;;;;;;;5051147;28;1913;-44
2023/02/06 05:33:02;;;;;;;;;;;;;;;;;;5051023;28;1903;-44
2023/02/06 05:35:29;;;;;;;;;;;;;;;;;;5051080;28;2101;-44
2023/02/06 05:37:56;;;;;;;;;;;;;;;;;;5050937;28;1986;-44
2023/02/06 05:40:23;;;;;;;;;;;;;;;;;;5052432;28;1768;-44
2023/02/06 05:42:50;;;;;;;;;;;;;;;;;;5055111;28;1913;-44
2023/02/06 05:45:18;;;;;;;;;;;;;;;;;;5055044;28;2095;-45
2023/02/06 05:47:45;;;;;;;;;;;;;;;;;;5055105;28;1664;-44
2023/02/06 05:50:12;;;;;;;;;;;;;;;;;;5054971;28;1700;-46
2023/02/06 05:52:40;;;;;;;;;;;;;;;;;;5054853;28;2044;-45
2023/02/06 05:55:07;;;;;;;;;;;;;;;;;;5054904;28;1246;-45
2023/02/06 05:57:35;;;;;;;;;;;;;;;;;;5054697;28;1932;-44
2023/02/06 06:00:03;;;;;;;;;;;;;;;;;;5054746;28;1965;-43
2023/02/06 06:02:37;;;;;;;;;;;;;;;;;;5054698;28;1865;-44
2023/02/06 06:05:04;;;;;;;;;;;;;;;;;;5054800;28;2017;-48
2023/02/06 06:07:31;;;;;;;;;;;;;;;;;;5054766;28;2102;-48
2023/02/06 06:09:59;;;;;;;;;;;;;;;;;;5054837;28;2080;-44
2023/02/06 06:12:26;;;;;;;;;;;;;;;;;;5054262;28;1790;-44
2023/02/06 06:14:53;;;;;;;;;;;;;;;;;;5054557;28;1986;-44
2023/02/06 06:17:20;;;;;;;;;;;;;;;;;;5054592;28;1734;-44
2023/02/06 06:19:47;;;;;;;;;;;;;;;;;;5054342;28;1913;-44
2023/02/06 06:22:14;;;;;;;;;;;;;;;;;;5054308;28;1846;-44
2023/02/06 06:24:42;;;;;;;;;;;;;;;;;;5054455;28;1876;-44
2023/02/06 06:27:10;;;;;;;;;;;;;;;;;;5054362;28;2107;-44
2023/02/06 06:29:37;;;;;;;;;;;;;;;;;;5054418;28;1795;-44
2023/02/06 06:32:05;;;;;;;;;;;;;;;;;;5054270;28;1864;-43
2023/02/06 06:34:32;;;;;;;;;;;;;;;;;;5054047;28;1799;-49
2023/02/06 06:36:59;;;;;;;;;;;;;;;;;;5054429;28;1479;-44
2023/02/06 06:39:26;;;;;;;;;;;;;;;;;;5053735;28;2163;-44
2023/02/06 06:41:53;;;;;;;;;;;;;;;;;;5054074;28;1897;-44
2023/02/06 06:44:21;;;;;;;;;;;;;;;;;;5053690;28;1610;-44
2023/02/06 06:46:48;;;;;;;;;;;;;;;;;;5053904;28;1495;-44
2023/02/06 06:49:15;;;;;;;;;;;;;;;;;;5053952;28;1811;-45
2023/02/06 06:51:42;;;;;;;;;;;;;;;;;;5052887;28;2231;-44
2023/02/06 06:54:09;;;;;;;;;;;;;;;;;;5053901;28;2123;-45
2023/02/06 06:56:36;;;;;;;;;;;;;;;;;;5053807;28;1810;-44
2023/02/06 06:59:04;;;;;;;;;;;;;;;;;;5053674;28;1916;-44
2023/02/06 07:01:31;;;;;;;;;;;;;;;;;;5053647;28;1981;-45
2023/02/06 07:03:59;;;;;;;;;;;;;;;;;;5053845;28;2329;-48
2023/02/06 07:06:26;;;;;;;;;;;;;;;;;;5053495;28;2257;-44
2023/02/06 07:08:53;;;;;;;;;;;;;;;;;;5053522;28;1623;-44
2023/02/06 07:11:20;;;;;;;;;;;;;;;;;;5053592;28;1606;-44
2023/02/06 07:13:47;;;;;;;;;;;;;;;;;;5053514;28;1479;-45
2023/02/06 07:16:14;;;;;;;;;;;;;;;;;;5053396;28;1478;-48
2023/02/06 07:18:42;;;;;;;;;;;;;;;;;;5053269;28;1887;-43
2023/02/06 07:21:09;;;;;;;;;;;;;;;;;;5053439;28;2298;-44
2023/02/06 07:23:37;;;;;;;;;;;;;;;;;;5053704;28;1336;-44
2023/02/06 07:26:04;;;;;;;;;;;;;;;;;;5053185;28;1835;-44
2023/02/06 07:28:32;;;;;;;;;;;;;;;;;;5053294;28;1815;-46
2023/02/06 07:31:03;;;;;;;;;;;;;;;;;;5053427;28;2028;-47
2023/02/06 07:33:30;;;;;;;;;;;;;;;;;;5053385;28;1915;-43
2023/02/06 07:35:58;;;;;;;;;;;;;;;;;;5053231;28;1709;-44
2023/02/06 07:38:29;;;;;;;;;;;;;;;;;;5053036;28;2183;-51
2023/02/06 07:41:00;;;;;;;;;;;;;;;;;;5052997;28;1822;-46
2023/02/06 07:43:27;;;;;;;;;;;;;;;;;;5052948;28;2112;-45
2023/02/06 07:46:03;;;;;;;;;;;;;;;;;;5052606;28;1786;-44
2023/02/06 07:48:31;;;;;;;;;;;;;;;;;;5052887;28;2097;-44
2023/02/06 07:51:03;;;;;;;;;;;;;;;;;;5052880;28;1815;-44
2023/02/06 07:53:30;;;;;;;;;;;;;;;;;;5052928;28;1517;-46
2023/02/06 07:55:57;;;;;;;;;;;;;;;;;;5052643;28;2397;-43
2023/02/06 07:58:24;;;;;;;;;;;;;;;;;;5052784;28;1986;-44
2023/02/06 08:00:53;;;;;;;;;;;;;;;;;;5051280;28;1625;-45
2023/02/06 08:03:21;;;;;;;;;;;;;;;;;;5031328;28;2125;-47
2023/02/06 08:05:48;;;;;;;;;;;;;;;;;;5032654;28;1505;-49
2023/02/06 08:08:15;;;;;;;;;;;;;;;;;;5014715;28;1654;-44
2023/02/06 08:10:43;;;;;;;;;;;;;;;;;;5032487;28;1871;-44
2023/02/06 08:13:10;;;;;;;;;;;;;;;;;;5032571;28;2166;-44
2023/02/06 08:15:37;;;;;;;;;;;;;;;;;;5014598;28;2144;-43
2023/02/06 08:18:04;;;;;;;;;;;;;;;;;;5032638;28;1761;-44
2023/02/06 08:20:31;;;;;;;;;;;;;;;;;;5032223;28;2421;-45
2023/02/06 08:22:58;;;;;;;;;;;;;;;;;;5048717;28;1638;-44
2023/02/06 08:25:25;;;;;;;;;;;;;;;;;;5051303;28;1874;-46
2023/02/06 08:27:55;;;;;;;;;;;;;;;;;;5051876;28;2010;-44
2023/02/06 08:30:23;;;;;;;;;;;;;;;;;;5051072;28;2087;-47
2023/02/06 08:32:50;;;;;;;;;;;;;;;;;;5051653;28;2107;-46
2023/02/06 08:35:17;;;;;;;;;;;;;;;;;;5051203;28;2066;-44
2023/02/06 08:37:44;;;;;;;;;;;;;;;;;;5052002;28;1511;-45
2023/02/06 08:40:11;;;;;;;;;;;;;;;;;;5051658;28;1978;-42
2023/02/06 08:42:38;;;;;;;;;;;;;;;;;;5051393;28;1959;-45
2023/02/06 08:45:06;;;;;;;;;;;;;;;;;;5051817;28;2060;-44
2023/02/06 08:47:34;;;;;;;;;;;;;;;;;;5050931;28;2235;-45
2023/02/06 08:50:02;;;;;;;;;;;;;;;;;;5051525;28;1840;-47
2023/02/06 08:52:29;;;;;;;;;;;;;;;;;;5051518;28;2143;-47
2023/02/06 08:54:56;;;;;;;;;;;;;;;;;;5051523;28;1630;-44
2023/02/06 08:57:23;;;;;;;;;;;;;;;;;;5051341;28;1925;-43
2023/02/06 08:59:51;;;;;;;;;;;;;;;;;;5051463;28;2177;-47
2023/02/06 09:02:18;;;;;;;;;;;;;;;;;;5051213;28;2081;-45
2023/02/06 09:04:45;;;;;;;;;;;;;;;;;;5051401;28;2215;-44
2023/02/06 09:07:12;;;;;;;;;;;;;;;;;;5051405;28;1697;-43
2023/02/06 09:09:42;;;;;;;;;;;;;;;;;;5051695;28;1977;-44
2023/02/06 09:12:10;;;;;;;;;;;;;;;;;;5033829;28;1705;-49
2023/02/06 09:14:37;;;;;;;;;;;;;;;;;;5050931;28;2149;-48
2023/02/06 09:17:05;;;;;;;;;;;;;;;;;;5051118;28;1846;-46
2023/02/06 09:19:32;;;;;;;;;;;;;;;;;;5051297;28;2011;-43
2023/02/06 09:21:59;;;;;;;;;;;;;;;;;;5051257;28;1795;-46
2023/02/06 09:24:28;;;;;;;;;;;;;;;;;;5051085;28;1921;-43
2023/02/06 09:26:56;;;;;;;;;;;;;;;;;;5051197;28;2066;-44
2023/02/06 09:29:30;;;;;;;;;;;;;;;;;;5050912;28;2005;-43
2023/02/06 09:31:58;;;;;;;;;;;;;;;;;;5051121;28;1877;-43
2023/02/06 09:34:27;;;;;;;;;;;;;;;;;;5050955;28;1778;-44
2023/02/06 09:36:55;;;;;;;;;;;;;;;;;;5051135;28;1432;-44
2023/02/06 09:39:23;;;;;;;;;;;;;;;;;;5051062;28;1913;-43
2023/02/06 09:41:51;;;;;;;;;;;;;;;;;;5051394;28;2189;-45
2023/02/06 09:44:30;;;;;;;;;;;;;;;;;;5050917;28;1775;-45
2023/02/06 09:47:02;;;;;;;;;;;;;;;;;;5050620;28;1584;-48
2023/02/06 09:49:34;;;;;;;;;;;;;;;;;;5050861;28;2083;-48
2023/02/06 09:52:08;;;;;;;;;;;;;;;;;;5049680;28;1853;-44
2023/02/06 09:54:44;;;;;;;;;;;;;;;;;;5050733;28;2071;-44
2023/02/06 09:57:13;;;;;;;;;;;;;;;;;;5050801;28;1983;-44
2023/02/06 09:59:43;;;;;;;;;;;;;;;;;;5050979;28;1930;-43
2023/02/06 10:02:29;;;;;;;;;;;;;;;;;;5050956;28;1901;-47
2023/02/06 10:05:09;;;;;;;;;;;;;;;;;;5050601;28;1955;-44
2023/02/06 10:07:56;;;;;;;;;;;;;;;;;;5050812;28;2095;-44
2023/02/06 10:10:29;;;;;;;;;;;;;;;;;;5049508;28;1475;-43
2023/02/06 10:13:15;;;;;;;;;;;;;;;;;;5050436;28;1955;-44
2023/02/06 10:15:45;;;;;;;;;;;;;;;;;;5032962;28;2037;-44
2023/02/06 10:18:13;;;;;;;;;;;;;;;;;;5049779;28;2548;-40
2023/02/06 10:20:50;;;;;;;;;;;;;;;;;;5049615;28;1909;-44
2023/02/06 10:23:47;;;;;;;;;;;;;;;;;;5050931;28;1916;-41
2023/02/06 10:26:16;;;;;;;;;;;;;;;;;;5029157;28;2212;-45
2023/02/06 10:28:47;;;;;;;;;;;;;;;;;;5054257;28;2083;-47
2023/02/06 10:31:20;;;;;;;;;;;;;;;;;;5054176;28;1851;-42
2023/02/06 10:33:59;;;;;;;;;;;;;;;;;;5052714;28;1860;-43
2023/02/06 10:36:39;;;;;;;;;;;;;;;;;;5053802;28;1705;-42
2023/02/06 10:39:16;;;;;;;;;;;;;;;;;;5053147;28;2149;-44
2023/02/06 10:41:44;;;;;;;;;;;;;;;;;;5054036;28;1841;-46
2023/02/06 10:44:23;;;;;;;;;;;;;;;;;;5053953;28;1719;-50
2023/02/06 10:46:52;;;;;;;;;;;;;;;;;;5053789;28;1808;-52
2023/02/06 10:49:29;;;;;;;;;;;;;;;;;;5056444;28;2085;-44
2023/02/06 10:51:57;;;;;;;;;;;;;;;;;;5062876;28;1797;-47
2023/02/06 10:54:33;;;;;;;;;;;;;;;;;;5033644;28;1833;-41
2023/02/06 10:57:00;;;;;;;;;;;;;;;;;;5033492;28;1801;-42
2023/02/06 10:59:37;;;;;;;;;;;;;;;;;;5033406;28;1924;-43
2023/02/06 11:02:25;;;;;;;;;;;;;;;;;;5034293;28;1785;-41
2023/02/06 11:04:58;;;;;;;;;;;;;;;;;;5053372;28;1911;-42
2023/02/06 11:07:30;;;;;;;;;;;;;;;;;;5053106;28;1868;-45
2023/02/06 11:09:57;;;;;;;;;;;;;;;;;;5053165;28;1835;-49
2023/02/06 11:12:27;;;;;;;;;;;;;;;;;;5053254;28;2158;-45
2023/02/06 11:14:57;;;;;;;;;;;;;;;;;;5053396;28;1817;-44
2023/02/06 11:17:27;;;;;;;;;;;;;;;;;;5052942;28;2096;-45
2023/02/06 11:19:58;;;;;;;;;;;;;;;;;;5052770;28;2006;-43
2023/02/06 11:22:27;;;;;;;;;;;;;;;;;;5035070;28;2028;-44
2023/02/06 11:24:59;;;;;;;;;;;;;;;;;;5053138;28;1931;-45
2023/02/06 11:27:26;;;;;;;;;;;;;;;;;;5052964;28;2155;-45
2023/02/06 11:29:53;;;;;;;;;;;;;;;;;;5052947;28;1757;-45
2023/02/06 11:32:39;;;;;;;;;;;;;;;;;;5052439;28;1493;-44
2023/02/06 11:35:16;;;;;;;;;;;;;;;;;;5052811;28;1949;-44
2023/02/06 11:37:44;;;;;;;;;;;;;;;;;;5052548;28;2221;-45
2023/02/06 11:40:17;;;;;;;;;;;;;;;;;;5052622;28;1920;-46
2023/02/06 11:42:51;;;;;;;;;;;;;;;;;;5052734;28;1971;-44
2023/02/06 11:45:21;;;;;;;;;;;;;;;;;;5052578;28;2037;-44
2023/02/06 11:47:49;;;;;;;;;;;;;;;;;;5052902;28;1836;-44
2023/02/06 11:50:22;;;;;;;;;;;;;;;;;;5052134;28;1599;-46
2023/02/06 11:52:54;;;;;;;;;;;;;;;;;;5052745;28;1814;-44
2023/02/06 11:55:24;;;;;;;;;;;;;;;;;;5052178;28;1607;-43
2023/02/06 11:58:14;;;;;;;;;;;;;;;;;;5051664;28;1806;-44
2023/02/06 12:00:50;;;;;;;;;;;;;;;;;;5042327;28;1906;-44
2023/02/06 12:03:24;;;;;;;;;;;;;;;;;;5052329;28;2169;-43
2023/02/06 12:05:52;;;;;;;;;;;;;;;;;;5052081;28;1803;-42
2023/02/06 12:08:23;;;;;;;;;;;;;;;;;;5052616;28;1472;-45
2023/02/06 12:10:58;;;;;;;;;;;;;;;;;;5052438;28;2102;-43
2023/02/06 12:13:35;;;;;;;;;;;;;;;;;;5052444;28;1736;-44
2023/02/06 12:16:04;;;;;;;;;;;;;;;;;;5051867;28;1861;-44
2023/02/06 12:18:42;;;;;;;;;;;;;;;;;;5052159;28;1780;-46
2023/02/06 12:21:15;;;;;;;;;;;;;;;;;;5051955;28;1914;-44
2023/02/06 12:23:53;;;;;;;;;;;;;;;;;;5052073;28;1637;-44
2023/02/06 12:26:23;;;;;;;;;;;;;;;;;;5051564;28;2017;-44
2023/02/06 12:29:03;;;;;;;;;;;;;;;;;;5051749;28;1529;-44
2023/02/06 12:31:35;;;;;;;;;;;;;;;;;;5051371;28;2034;-43
2023/02/06 12:34:23;;;;;;;;;;;;;;;;;;5051480;28;2542;-47
2023/02/06 12:37:13;;;;;;;;;;;;;;;;;;5051831;28;1617;-44
2023/02/06 12:39:41;;;;;;;;;;;;;;;;;;5051716;28;2077;-43
2023/02/06 12:42:27;;;;;;;;;;;;;;;;;;5051711;28;2028;-42
2023/02/06 12:44:56;;;;;;;;;;;;;;;;;;5051541;28;1791;-43
2023/02/06 12:47:31;;;;;;;;;;;;;;;;;;5051470;28;1733;-44
2023/02/06 12:50:05;;;;;;;;;;;;;;;;;;5050758;28;1757;-44
2023/02/06 12:52:38;;;;;;;;;;;;;;;;;;5051574;28;2015;-44
2023/02/06 12:55:16;;;;;;;;;;;;;;;;;;5051606;28;2122;-44
2023/02/06 12:57:44;;;;;;;;;;;;;;;;;;5051485;28;1380;-43
2023/02/06 13:00:28;;;;;;;;;;;;;;;;;;5051325;28;2151;-44
2023/02/06 13:03:15;;;;;;;;;;;;;;;;;;5051374;28;1712;-44
2023/02/06 13:05:47;;;;;;;;;;;;;;;;;;5051580;28;2101;-43
2023/02/06 13:08:23;;;;;;;;;;;;;;;;;;5051097;28;2205;-43
2023/02/06 13:11:08;;;;;;;;;;;;;;;;;;5032562;28;1364;-45
2023/02/06 13:13:39;;;;;;;;;;;;;;;;;;5050652;28;2177;-44
2023/02/06 13:16:07;;;;;;;;;;;;;;;;;;5051182;28;1624;-44
2023/02/06 13:18:34;;;;;;;;;;;;;;;;;;5029550;28;1907;-43
2023/02/06 13:21:14;;;;;;;;;;;;;;;;;;5031211;28;1983;-47
2023/02/06 13:23:48;;;;;;;;;;;;;;;;;;5031062;28;1825;-44
2023/02/06 13:26:15;;;;;;;;;;;;;;;;;;5031215;28;1914;-44
2023/02/06 13:28:45;;;;;;;;;;;;;;;;;;5037839;28;2223;-47
2023/02/06 13:31:23;;;;;;;;;;;;;;;;;;5050817;28;1831;-44
2023/02/06 13:33:55;;;;;;;;;;;;;;;;;;5050816;28;1731;-44
2023/02/06 13:36:25;;;;;;;;;;;;;;;;;;5050985;28;2140;-43
2023/02/06 13:38:53;;;;;;;;;;;;;;;;;;5051053;28;2109;-44
2023/02/06 13:41:26;;;;;;;;;;;;;;;;;;5050711;28;2204;-44
2023/02/06 13:43:57;;;;;;;;;;;;;;;;;;5050561;28;1696;-44
2023/02/06 13:46:35;;;;;;;;;;;;;;;;;;5050844;28;1713;-45
2023/02/06 13:49:18;;;;;;;;;;;;;;;;;;5050592;28;2088;-41
2023/02/06 13:51:45;;;;;;;;;;;;;;;;;;5050701;28;1856;-43
2023/02/06 13:54:15;;;;;;;;;;;;;;;;;;5034532;28;1817;-46
2023/02/06 13:56:48;;;;;;;;;;;;;;;;;;5030991;28;1910;-44
2023/02/06 13:59:21;;;;;;;;;;;;;;;;;;5030699;28;1978;-47
2023/02/06 14:01:50;;;;;;;;;;;;;;;;;;5032651;28;2233;-51
2023/02/06 14:04:22;;;;;;;;;;;;;;;;;;5053276;28;1656;-45
2023/02/06 14:06:50;;;;;;;;;;;;;;;;;;5054788;28;2231;-47
2023/02/06 14:12:34;;;;;;;;;;;;;;;;;;5054372;28;1808;-46
2023/02/06 14:15:04;;;;;;;;;;;;;;;;;;5053658;28;1979;-42
2023/02/06 14:17:31;;;;;;;;;;;;;;;;;;5054344;28;1825;-50
2023/02/06 14:20:06;;;;;;;;;;;;;;;;;;5054253;28;1979;-47
2023/02/06 14:22:38;;;;;;;;;;;;;;;;;;5054393;28;1985;-47
2023/02/06 14:25:14;;;;;;;;;;;;;;;;;;5054256;28;2082;-45
2023/02/06 14:27:56;;;;;;;;;;;;;;;;;;5054063;28;1914;-49
2023/02/06 14:30:29;;;;;;;;;;;;;;;;;;5054035;28;2113;-47
2023/02/06 14:32:59;;;;;;;;;;;;;;;;;;5054191;28;1977;-45
2023/02/06 14:35:36;;;;;;;;;;;;;;;;;;5054206;28;2108;-49
2023/02/06 14:38:09;;;;;;;;;;;;;;;;;;5053823;28;1386;-49
2023/02/06 14:40:41;;;;;;;;;;;;;;;;;;5053872;28;2245;-45
2023/02/06 14:43:13;;;;;;;;;;;;;;;;;;5053368;28;1352;-49
2023/02/06 14:45:43;;;;;;;;;;;;;;;;;;5053775;28;2177;-51
2023/02/06 14:48:21;;;;;;;;;;;;;;;;;;5053768;28;1852;-49
2023/02/06 14:50:50;;;;;;;;;;;;;;;;;;5053651;28;1804;-51
2023/02/06 14:53:17;;;;;;;;;;;;;;;;;;5053648;28;1649;-49
2023/02/06 14:55:45;;;;;;;;;;;;;;;;;;5053638;28;1837;-47
2023/02/06 14:58:26;;;;;;;;;;;;;;;;;;5053633;28;1714;-48
2023/02/06 15:00:54;;;;;;;;;;;;;;;;;;5053027;28;1971;-50
2023/02/06 15:03:25;;;;;;;;;;;;;;;;;;5053347;28;1848;-44
2023/02/06 15:06:00;;;;;;;;;;;;;;;;;;5053559;28;2000;-44
2023/02/06 15:08:27;;;;;;;;;;;;;;;;;;5053508;28;2251;-49
2023/02/06 15:10:58;;;;;;;;;;;;;;;;;;5052561;28;2046;-48
2023/02/06 15:13:34;;;;;;;;;;;;;;;;;;5052098;28;1585;-46
2023/02/06 15:16:05;;;;;;;;;;;;;;;;;;5053388;28;1957;-47
2023/02/06 15:18:33;;;;;;;;;;;;;;;;;;5053200;28;1966;-44
2023/02/06 15:21:11;;;;;;;;;;;;;;;;;;5053139;28;2384;-43
2023/02/06 15:23:44;;;;;;;;;;;;;;;;;;5052851;28;2298;-44
2023/02/06 15:26:26;;;;;;;;;;;;;;;;;;5053051;28;2010;-44
2023/02/06 15:29:00;;;;;;;;;;;;;;;;;;5053217;28;2184;-50
2023/02/06 15:31:27;;;;;;;;;;;;;;;;;;5052969;28;2151;-47
2023/02/06 15:33:56;;;;;;;;;;;;;;;;;;5052831;28;1786;-45
2023/02/06 15:36:37;;;;;;;;;;;;;;;;;;5052935;28;2008;-50
2023/02/06 15:39:06;;;;;;;;;;;;;;;;;;5052775;28;1835;-46
2023/02/06 15:41:34;;;;;;;;;;;;;;;;;;5052695;28;1977;-49
2023/02/06 15:44:02;;;;;;;;;;;;;;;;;;5052814;28;2122;-46
2023/02/06 15:46:30;;;;;;;;;;;;;;;;;;5052446;28;1818;-48
2023/02/06 15:48:58;;;;;;;;;;;;;;;;;;5052607;28;1811;-44
2023/02/06 15:51:29;;;;;;;;;;;;;;;;;;5052385;28;2125;-51
2023/02/06 15:54:17;;;;;;;;;;;;;;;;;;5052527;28;1819;-50
2023/02/06 15:56:48;;;;;;;;;;;;;;;;;;5052349;28;1782;-46
2023/02/06 15:59:20;;;;;;;;;;;;;;;;;;5052123;28;1853;-49
2023/02/06 16:01:48;;;;;;;;;;;;;;;;;;5052289;28;1906;-46
2023/02/06 16:04:17;;;;;;;;;;;;;;;;;;5052231;28;1467;-45
2023/02/06 16:06:45;;;;;;;;;;;;;;;;;;5052369;28;1998;-43
2023/02/06 16:09:18;;;;;;;;;;;;;;;;;;5052307;28;2063;-48
2023/02/06 16:11:51;;;;;;;;;;;;;;;;;;5034023;28;2681;-43
2023/02/06 16:14:38;;;;;;;;;;;;;;;;;;5052178;28;1701;-47
2023/02/06 16:17:08;;;;;;;;;;;;;;;;;;5052293;28;1650;-47
2023/02/06 16:19:41;;;;;;;;;;;;;;;;;;5052366;28;1786;-44
2023/02/06 16:22:16;;;;;;;;;;;;;;;;;;5051659;28;2455;-45
2023/02/06 16:24:44;;;;;;;;;;;;;;;;;;5051637;28;1859;-45
2023/02/06 16:27:17;;;;;;;;;;;;;;;;;;5052158;28;2001;-45
2023/02/06 16:29:47;;;;;;;;;;;;;;;;;;5052023;28;1699;-46
2023/02/06 16:32:28;;;;;;;;;;;;;;;;;;5051726;28;1667;-45
2023/02/06 16:34:55;;;;;;;;;;;;;;;;;;5051654;28;1930;-48
2023/02/06 16:37:24;;;;;;;;;;;;;;;;;;5051738;28;1844;-45
2023/02/06 16:39:51;;;;;;;;;;;;;;;;;;5051714;28;2252;-50
2023/02/06 16:42:20;;;;;;;;;;;;;;;;;;5051597;28;2089;-49
2023/02/06 16:44:51;;;;;;;;;;;;;;;;;;5050874;28;1931;-47
2023/02/06 16:47:19;;;;;;;;;;;;;;;;;;5051541;28;1909;-45
2023/02/06 16:49:47;;;;;;;;;;;;;;;;;;5051401;28;1839;-49
2023/02/06 16:52:16;;;;;;;;;;;;;;;;;;5051472;28;1610;-49
2023/02/06 16:54:44;;;;;;;;;;;;;;;;;;5051476;28;1824;-48
2023/02/06 16:57:27;;;;;;;;;;;;;;;;;;5033861;28;2292;-47
2023/02/06 16:59:55;;;;;;;;;;;;;;;;;;5051384;28;1963;-44
2023/02/06 17:02:22;;;;;;;;;;;;;;;;;;5051278;28;1968;-46
2023/02/06 17:04:50;;;;;;;;;;;;;;;;;;5051317;28;1906;-45
2023/02/06 17:07:23;;;;;;;;;;;;;;;;;;5051165;28;1908;-44
2023/02/06 17:09:50;;;;;;;;;;;;;;;;;;5051156;28;1854;-49
2023/02/06 17:12:19;;;;;;;;;;;;;;;;;;5051059;28;2151;-45
2023/02/06 17:14:47;;;;;;;;;;;;;;;;;;5051251;28;1629;-48
2023/02/06 17:17:21;;;;;;;;;;;;;;;;;;5051034;28;1926;-48
2023/02/06 17:19:49;;;;;;;;;;;;;;;;;;5051072;28;1556;-48
2023/02/06 17:22:16;;;;;;;;;;;;;;;;;;5050724;28;2071;-48
2023/02/06 17:24:44;;;;;;;;;;;;;;;;;;5051086;28;1815;-47
2023/02/06 17:27:22;;;;;;;;;;;;;;;;;;5051114;28;1914;-43
2023/02/06 17:29:49;;;;;;;;;;;;;;;;;;5051024;28;1977;-49